Time;durP1;ratioP1;P1;durP2;ratioP2;P2;SDS_P1;SDS_P2;PMS_P1;PMS_P2;Temp;Humidity;BMP_temperature;BMP_pressure;BME280_temperature;BME280_humidity;BME280_pressure;Samples;Min_cycle;Max_cycle;Signal;HPM_P1;HPM_P2
2023/03/04 00:03:20;;;;;;;19.80;15.07;;;4.90;53.60;;;;;;2613742;54;20456;-72
2023/03/04 00:09:08;;;;;;;19.83;14.83;;;4.90;53.60;;;;;;2613687;54;20398;-71
2023/03/04 00:14:56;;;;;;;16.00;13.90;;;4.90;51.70;;;;;;2614169;39;21260;-71
2023/03/04 00:20:44;;;;;;;19.03;14.17;;;4.90;51.60;;;;;;2613565;54;20239;-72
2023/03/04 00:26:32;;;;;;;19.50;14.70;;;4.90;52.40;;;;;;2614340;39;20530;-73
2023/03/04 00:32:19;;;;;;;18.23;16.20;;;4.80;53.60;;;;;;2613271;54;20972;-72
2023/03/04 00:38:07;;;;;;;17.93;16.10;;;5.00;50.30;;;;;;2613682;54;20151;-72
2023/03/04 00:40:52;;;;;;;19.77;15.80;;;5.00;48.00;;;;;;2614221;54;20416;-72
2023/03/04 00:43:18;;;;;;;14.27;12.97;;;5.00;49.30;;;;;;2612539;47;20231;-72
2023/03/04 00:49:06;;;;;;;17.37;13.77;;;5.00;48.30;;;;;;2613048;54;20475;-72
2023/03/04 00:54:54;;;;;;;16.77;13.73;;;5.00;48.90;;;;;;2613605;54;20129;-73
2023/03/04 01:04:04;;;;;;;16.50;14.20;;;5.10;46.40;;;;;;2611328;54;20442;-72
2023/03/04 01:09:51;;;;;;;15.33;12.40;;;5.00;48.90;;;;;;2613647;54;20131;-72
2023/03/04 01:15:39;;;;;;;13.17;11.90;;;5.00;48.60;;;;;;2610191;54;20784;-72
2023/03/04 01:21:27;;;;;;;16.53;13.23;;;4.90;49.40;;;;;;2612149;54;20274;-71
2023/03/04 01:27:14;;;;;;;14.10;12.40;;;5.00;50.00;;;;;;2613821;54;20154;-72
2023/03/04 01:33:02;;;;;;;14.03;11.23;;;4.90;51.60;;;;;;2612506;54;20190;-73
2023/03/04 01:38:50;;;;;;;17.37;12.43;;;4.90;56.70;;;;;;2614485;54;20154;-72
2023/03/04 01:44:37;;;;;;;13.53;12.13;;;4.90;52.80;;;;;;2611271;54;20138;-73
2023/03/04 01:50:34;;;;;;;16.37;11.77;;;5.00;52.40;;;;;;2612814;54;20154;-72
2023/03/04 01:56:29;;;;;;;14.87;12.57;;;4.90;51.20;;;;;;2613887;54;21066;-72
2023/03/04 01:59:24;;;;;;;20.40;11.90;;;4.90;53.90;;;;;;2610872;47;20398;-72
2023/03/04 02:01:52;;;;;;;20.57;13.23;;;4.90;54.80;;;;;;2611798;54;20399;-73
2023/03/04 02:07:40;;;;;;;19.23;12.30;;;4.90;54.10;;;;;;2613580;54;20391;-72
2023/03/04 02:13:28;;;;;;;16.33;11.47;;;4.90;52.90;;;;;;2610555;54;20399;-73
2023/03/04 02:19:25;;;;;;;13.70;11.20;;;5.10;49.30;;;;;;2613666;54;20275;-71
2023/03/04 02:31:30;;;;;;;21.97;12.33;;;5.00;50.90;;;;;;2613630;54;20394;-72
2023/03/04 02:37:19;;;;;;;24.00;11.43;;;5.10;47.20;;;;;;2613160;54;20364;-73
2023/03/04 02:43:10;;;;;;;21.43;11.53;;;5.00;45.90;;;;;;2613477;54;20398;-73
2023/03/04 02:48:58;;;;;;;16.60;10.60;;;5.00;47.20;;;;;;2614136;54;20367;-72
2023/03/04 02:54:46;;;;;;;22.63;12.30;;;5.00;49.00;;;;;;2613449;54;20275;-72
2023/03/04 03:03:56;;;;;;;18.77;11.60;;;5.00;47.90;;;;;;2613067;54;20426;-71
2023/03/04 03:09:44;;;;;;;20.03;11.80;;;5.00;48.80;;;;;;2614363;54;20134;-72
2023/03/04 03:12:47;;;;;;;28.50;13.20;;;5.00;47.80;;;;;;2614329;39;20924;-72
2023/03/04 03:15:12;;;;;;;14.57;11.57;;;5.00;44.90;;;;;;2613495;54;20168;-72
2023/03/04 03:21:00;;;;;;;29.90;12.00;;;5.00;43.00;;;;;;2613593;54;20648;-73
2023/03/04 03:26:48;;;;;;;20.60;11.93;;;5.10;41.90;;;;;;2614059;54;20166;-72
2023/03/04 03:32:36;;;;;;;19.90;12.37;;;5.00;44.70;;;;;;2613797;54;20146;-72
2023/03/04 03:38:23;;;;;;;13.43;10.83;;;4.90;46.90;;;;;;2613019;54;20392;-73
2023/03/04 03:44:11;;;;;;;22.40;12.93;;;4.90;47.30;;;;;;2613633;54;20656;-73
2023/03/04 03:49:59;;;;;;;28.67;12.83;;;5.00;45.30;;;;;;2614439;54;20250;-71
2023/03/04 03:55:47;;;;;;;11.77;10.57;;;5.10;41.90;;;;;;2613090;54;20134;-72
2023/03/04 04:01:34;;;;;;;15.87;10.67;;;5.00;44.00;;;;;;2612192;54;20298;-73
2023/03/04 04:07:22;;;;;;;16.70;9.90;;;4.90;47.70;;;;;;2613096;54;20130;-72
2023/03/04 04:13:10;;;;;;;15.97;11.43;;;5.00;47.50;;;;;;2612318;54;20150;-72
2023/03/04 04:18:57;;;;;;;17.27;10.90;;;5.00;46.00;;;;;;2611987;39;21062;-73
2023/03/04 04:24:45;;;;;;;13.23;10.27;;;5.00;48.30;;;;;;2614044;54;20146;-72
2023/03/04 04:30:34;;;;;;;13.10;10.20;;;5.00;46.70;;;;;;2614122;39;20653;-72
2023/03/04 04:36:21;;;;;;;10.90;9.90;;;5.00;48.10;;;;;;2613511;54;20957;-72
2023/03/04 04:42:10;;;;;;;15.00;12.00;;;5.00;46.70;;;;;;2613236;54;20125;-72
2023/03/04 04:47:57;;;;;;;18.17;12.23;;;5.00;48.40;;;;;;2614137;54;20400;-73
2023/03/04 04:53:44;;;;;;;11.40;10.20;;;5.00;52.00;;;;;;2614433;54;20130;-73
2023/03/04 04:59:32;;;;;;;9.37;8.67;;;5.10;51.70;;;;;;2608842;54;20126;-72
2023/03/04 05:05:25;;;;;;;11.27;10.27;;;5.00;54.80;;;;;;2610773;46;20169;-72
2023/03/04 05:11:13;;;;;;;12.00;8.50;;;5.00;54.50;;;;;;2611325;54;20680;-72
2023/03/04 05:17:00;;;;;;;19.07;11.60;;;5.10;42.90;;;;;;2613132;54;20988;-73
2023/03/04 05:22:48;;;;;;;19.47;9.87;;;5.00;45.80;;;;;;2613499;54;20130;-73
2023/03/04 05:28:36;;;;;;;10.57;9.37;;;5.00;49.00;;;;;;2610668;54;20150;-72
2023/03/04 05:34:23;;;;;;;9.57;8.57;;;4.90;53.60;;;;;;2610533;54;20442;-73
2023/03/04 05:40:12;;;;;;;12.37;9.53;;;5.00;54.10;;;;;;2613118;54;20159;-72
2023/03/04 05:45:59;;;;;;;11.03;9.57;;;4.90;54.60;;;;;;2610121;54;20417;-72
2023/03/04 05:51:47;;;;;;;11.90;9.37;;;5.00;56.10;;;;;;2613569;54;20141;-73
2023/03/04 05:57:35;;;;;;;21.70;9.30;;;5.00;57.10;;;;;;2614809;54;20121;-72
2023/03/04 06:06:46;;;;;;;15.67;10.07;;;5.00;57.60;;;;;;2613468;54;20411;-73
2023/03/04 06:12:33;;;;;;;13.17;8.70;;;5.00;57.60;;;;;;2614750;54;20374;-73
2023/03/04 06:18:22;;;;;;;10.90;8.60;;;5.00;61.70;;;;;;2614211;54;20159;-73
2023/03/04 06:24:10;;;;;;;15.37;9.57;;;5.00;59.70;;;;;;2613179;54;20394;-72
2023/03/04 06:29:58;;;;;;;10.00;9.00;;;4.90;68.00;;;;;;2613765;54;20669;-72
2023/03/04 06:35:46;;;;;;;16.80;9.40;;;5.00;55.60;;;;;;2613425;54;20410;-73
2023/03/04 06:41:35;;;;;;;9.37;8.57;;;5.00;56.90;;;;;;2614234;54;21063;-72
2023/03/04 06:47:23;;;;;;;10.97;9.40;;;5.10;59.00;;;;;;2614744;54;20435;-73
2023/03/04 06:53:10;;;;;;;9.20;8.50;;;5.10;64.50;;;;;;2613094;54;20158;-72
2023/03/04 06:58:58;;;;;;;13.70;8.90;;;5.00;68.10;;;;;;2610924;31;20680;-72
2023/03/04 07:04:58;;;;;;;10.37;8.43;;;5.10;63.80;;;;;;2607408;54;20240;-71
2023/03/04 07:10:46;;;;;;;9.17;8.40;;;5.10;55.70;;;;;;2605264;54;20426;-71
2023/03/04 07:16:33;;;;;;;10.60;9.20;;;5.10;58.40;;;;;;2611469;39;20778;-72
2023/03/04 07:22:20;;;;;;;9.93;8.90;;;5.10;62.30;;;;;;2608127;54;20319;-72
2023/03/04 07:28:07;;;;;;;11.10;9.40;;;5.20;62.90;;;;;;2609558;54;20134;-72
2023/03/04 07:33:59;;;;;;;14.60;10.83;;;5.20;62.20;;;;;;2610179;54;20159;-71
2023/03/04 07:39:46;;;;;;;18.60;12.23;;;5.20;70.70;;;;;;2610988;54;20419;-72
2023/03/04 07:45:37;;;;;;;13.63;10.30;;;5.10;76.00;;;;;;2610926;39;20546;-71
2023/03/04 07:51:26;;;;;;;11.53;9.80;;;5.20;86.00;;;;;;2608717;46;20411;-72
2023/03/04 07:57:14;;;;;;;8.53;7.67;;;5.30;83.20;;;;;;2612420;39;20777;-72
2023/03/04 08:06:47;;;;;;;12.37;7.90;;;5.60;85.20;;;;;;2614521;54;20407;-72
2023/03/04 08:12:35;;;;;;;8.40;7.70;;;5.70;74.30;;;;;;2614302;54;20379;-72
2023/03/04 08:18:23;;;;;;;10.50;8.50;;;6.00;75.00;;;;;;2609198;47;20805;-73
2023/03/04 08:24:11;;;;;;;9.53;8.73;;;6.60;59.20;;;;;;2612569;54;20787;-73
2023/03/04 08:29:58;;;;;;;9.67;8.67;;;6.90;44.70;;;;;;2614058;54;20159;-73
2023/03/04 08:35:46;;;;;;;8.83;8.10;;;6.80;42.30;;;;;;2613367;54;20147;-73
2023/03/04 08:41:34;;;;;;;9.90;8.33;;;7.00;38.10;;;;;;2610727;54;20411;-72
2023/03/04 08:47:22;;;;;;;9.77;8.00;;;6.80;46.70;;;;;;2608719;54;20640;-72
2023/03/04 08:53:10;;;;;;;9.37;8.47;;;6.50;49.40;;;;;;2613383;39;20510;-72
2023/03/04 08:56:14;;;;;;;7.97;7.37;;;6.60;53.40;;;;;;2613071;47;20530;-73
2023/03/04 08:58:39;;;;;;;8.30;7.37;;;6.90;55.20;;;;;;2612669;54;20442;-72
2023/03/04 09:07:49;;;;;;;8.00;7.30;;;6.30;87.40;;;;;;2612506;54;20555;-72
2023/03/04 09:13:37;;;;;;;10.03;9.07;;;5.80;99.90;;;;;;2613842;54;20255;-72
2023/03/04 09:19:26;;;;;;;9.10;8.20;;;5.70;99.90;;;;;;2613491;39;20578;-72
2023/03/04 09:25:14;;;;;;;8.00;7.30;;;6.10;99.90;;;;;;2610519;54;20399;-72
2023/03/04 09:37:18;;;;;;;11.17;8.67;;;5.90;99.90;;;;;;2613298;54;20367;-72
2023/03/04 09:49:39;;;;;;;10.77;8.47;;;6.20;99.90;;;;;;2612631;54;20469;-72
2023/03/04 09:55:36;;;;;;;9.73;7.80;;;6.20;99.90;;;;;;2608746;54;20375;-72
2023/03/04 10:12:20;;;;;;;13.40;9.37;;;6.50;99.90;;;;;;2614244;54;20391;-72
2023/03/04 10:18:21;;;;;;;11.40;7.47;;;6.60;99.90;;;;;;2611836;54;20387;-72
2023/03/04 10:24:14;;;;;;;8.80;7.60;;;6.60;99.90;;;;;;2609027;46;20483;-73
2023/03/04 10:30:01;;;;;;;11.87;8.10;;;6.60;99.90;;;;;;2611464;54;20429;-73
2023/03/04 10:36:00;;;;;;;11.30;6.30;;;6.60;99.90;;;;;;2604273;54;20154;-73
2023/03/04 10:48:25;;;;;;;9.80;7.00;;;6.60;99.90;;;;;;2611726;54;20488;-72
2023/03/04 10:54:15;;;;;;;7.70;7.00;;;6.90;99.90;;;;;;2609130;54;20532;-71
2023/03/04 11:00:21;;;;;;;8.67;6.33;;;6.90;99.90;;;;;;2608764;54;20411;-73
2023/03/04 11:06:22;;;;;;;8.93;6.47;;;6.70;99.90;;;;;;2612902;54;21028;-72
2023/03/04 11:22:15;;;;;;;8.20;7.00;;;6.90;99.90;;;;;;2612465;54;20400;-72
2023/03/04 11:41:13;;;;;;;8.63;6.00;;;7.80;99.90;;;;;;2613873;54;20391;-72
2023/03/04 11:53:43;;;;;;;7.00;6.50;;;8.00;96.60;;;;;;2612859;54;20391;-72
2023/03/04 11:59:40;;;;;;;8.57;7.67;;;7.40;99.90;;;;;;2614493;54;20454;-72
2023/03/04 12:05:36;;;;;;;8.10;7.40;;;7.50;99.90;;;;;;2613661;54;20471;-72
2023/03/04 12:15:23;;;;;;;7.80;7.20;;;7.70;99.40;;;;;;2610309;54;20406;-74
2023/03/04 12:28:09;;;;;;;7.50;5.83;;;7.20;99.90;;;;;;2612120;54;20468;-73
2023/03/04 12:38:31;;;;;;;8.80;7.90;;;8.00;99.10;;;;;;2611259;54;20980;-73
2023/03/04 12:44:20;;;;;;;9.73;8.80;;;7.70;98.10;;;;;;2606822;54;20405;-75
2023/03/04 12:56:55;;;;;;;7.80;7.17;;;7.00;99.90;;;;;;2608725;54;20363;-72
2023/03/04 13:03:00;;;;;;;8.60;7.77;;;6.70;99.90;;;;;;2609503;54;20434;-74
2023/03/04 13:13:21;;;;;;;7.90;7.03;;;6.80;99.90;;;;;;2607332;54;20472;-74
2023/03/04 13:25:36;;;;;;;9.33;7.60;;;7.20;99.90;;;;;;2610564;54;20386;-72
2023/03/04 13:31:25;;;;;;;9.87;8.77;;;7.10;99.90;;;;;;2607627;54;20440;-73
2023/03/04 13:37:28;;;;;;;10.10;6.80;;;7.00;99.90;;;;;;2607781;54;20387;-73
2023/03/04 13:54:07;;;;;;;13.17;6.57;;;7.20;99.90;;;;;;2608924;54;20388;-74
2023/03/04 13:59:55;;;;;;;9.17;8.17;;;7.60;99.90;;;;;;2610055;54;20375;-73
2023/03/04 14:05:43;;;;;;;6.40;5.90;;;7.90;99.90;;;;;;2609790;54;20891;-73
2023/03/04 14:11:41;;;;;;;6.43;5.83;;;7.90;99.90;;;;;;2610014;54;20222;-72
2023/03/04 14:20:57;;;;;;;5.10;4.70;;;7.80;99.90;;;;;;2612668;39;21082;-72
2023/03/04 14:26:45;;;;;;;6.10;5.60;;;7.70;99.90;;;;;;2612930;54;20403;-72
2023/03/04 14:32:33;;;;;;;6.77;6.07;;;7.70;99.90;;;;;;2611912;54;20418;-73
2023/03/04 14:38:35;;;;;;;7.83;6.30;;;7.80;99.90;;;;;;2612608;54;20780;-73
2023/03/04 14:54:27;;;;;;;10.50;6.60;;;7.80;99.90;;;;;;2613155;54;20410;-72
2023/03/04 14:56:53;;;;;;;6.80;6.10;;;7.80;99.90;;;;;;2612597;39;20637;-72
2023/03/04 15:02:41;;;;;;;7.97;6.80;;;7.70;98.10;;;;;;2613481;54;20154;-72
2023/03/04 15:08:34;;;;;;;6.27;4.87;;;7.80;94.70;;;;;;2613658;54;20395;-72
2023/03/04 15:14:45;;;;;;;7.03;5.80;;;7.90;94.90;;;;;;2614326;54;20374;-72
2023/03/04 15:20:33;;;;;;;6.70;6.20;;;7.80;94.20;;;;;;2614835;54;20375;-73
2023/03/04 15:26:21;;;;;;;6.53;6.00;;;7.80;92.30;;;;;;2611620;54;20170;-72
2023/03/04 15:32:10;;;;;;;7.67;7.07;;;7.80;79.90;;;;;;2613047;31;20703;-72
2023/03/04 15:37:58;;;;;;;11.40;7.90;;;7.80;75.20;;;;;;2611237;54;20355;-73
2023/03/04 15:43:46;;;;;;;8.67;8.07;;;7.90;60.40;;;;;;2611657;54;20391;-73
2023/03/04 15:49:34;;;;;;;8.90;8.00;;;7.90;51.20;;;;;;2613143;54;20126;-72
2023/03/04 15:55:22;;;;;;;11.20;9.33;;;7.90;43.50;;;;;;2613793;54;20941;-72
2023/03/04 16:01:15;;;;;;;10.93;8.83;;;7.70;41.00;;;;;;2612736;54;20138;-72
2023/03/04 16:07:02;;;;;;;8.00;7.50;;;7.70;30.80;;;;;;2613213;54;20407;-72
2023/03/04 16:12:51;;;;;;;9.80;9.00;;;7.70;20.60;;;;;;2612771;54;20126;-73
2023/03/04 16:16:04;;;;;;;14.80;9.47;;;7.70;16.30;;;;;;2612590;54;20436;-73
2023/03/04 16:18:29;;;;;;;11.80;10.70;;;7.70;14.80;;;;;;2612286;54;20403;-72
2023/03/04 16:24:18;;;;;;;8.80;8.17;;;7.60;14.50;;;;;;2611838;54;20214;-73
2023/03/04 16:30:22;;;;;;;9.90;9.20;;;7.50;13.20;;;;;;2610469;54;20432;-73
2023/03/04 16:36:17;;;;;;;10.00;8.37;;;7.40;13.60;;;;;;2611796;54;20408;-72
2023/03/04 16:48:34;;;;;;;8.60;8.03;;;7.30;15.10;;;;;;2611227;54;20946;-73
2023/03/04 16:54:31;;;;;;;11.63;10.70;;;7.20;15.00;;;;;;2611957;54;20688;-72
2023/03/04 17:00:21;;;;;;;10.67;9.83;;;7.20;15.90;;;;;;2608761;54;20395;-72
2023/03/04 17:06:10;;;;;;;14.07;9.27;;;7.20;17.10;;;;;;2609226;54;20488;-72
2023/03/04 17:11:57;;;;;;;9.00;8.50;;;7.10;17.70;;;;;;2609664;54;20399;-73
2023/03/04 17:21:13;;;;;;;10.03;8.80;;;7.00;18.90;;;;;;2609022;54;20406;-72
2023/03/04 17:27:01;;;;;;;9.40;8.50;;;6.90;18.70;;;;;;2610346;54;20406;-72
2023/03/04 17:32:49;;;;;;;10.67;8.20;;;6.90;18.80;;;;;;2609439;54;20137;-72
2023/03/04 17:38:37;;;;;;;9.60;8.80;;;6.90;19.20;;;;;;2610712;39;20356;-72
2023/03/04 17:44:24;;;;;;;9.90;9.10;;;6.90;18.80;;;;;;2611240;39;20577;-72
2023/03/04 17:50:12;;;;;;;9.87;8.90;;;6.90;19.50;;;;;;2609905;54;20151;-73
2023/03/04 17:56:02;;;;;;;10.00;9.17;;;6.90;19.40;;;;;;2609556;54;20174;-73
2023/03/04 18:01:50;;;;;;;9.97;9.13;;;6.90;18.00;;;;;;2609603;54;20423;-73
2023/03/04 18:07:38;;;;;;;10.97;9.83;;;6.80;18.30;;;;;;2610835;54;20398;-74
2023/03/04 18:13:25;;;;;;;10.00;9.00;;;6.70;18.70;;;;;;2609309;54;20198;-72
2023/03/04 18:16:36;;;;;;;9.93;9.10;;;6.70;17.70;;;;;;2608079;54;21351;-72
2023/03/04 18:19:03;;;;;;;9.67;8.87;;;6.70;17.70;;;;;;2609384;47;20182;-72
2023/03/04 18:24:50;;;;;;;11.70;10.00;;;6.60;21.10;;;;;;2610248;39;20684;-72
2023/03/04 18:30:38;;;;;;;10.80;9.73;;;6.60;22.30;;;;;;2608689;39;20683;-73
2023/03/04 18:36:26;;;;;;;20.60;10.93;;;6.50;22.70;;;;;;2608251;54;20154;-73
2023/03/04 18:42:14;;;;;;;9.50;8.70;;;6.50;18.60;;;;;;2609304;54;20175;-73
2023/03/04 18:48:01;;;;;;;24.50;10.73;;;6.40;15.50;;;;;;2609524;54;20135;-72
2023/03/04 18:53:49;;;;;;;11.20;10.03;;;6.40;15.30;;;;;;2610943;54;20231;-72
2023/03/04 19:05:58;;;;;;;12.60;10.50;;;6.30;16.10;;;;;;2611438;54;20418;-72
2023/03/04 19:11:46;;;;;;;13.73;11.37;;;6.30;16.20;;;;;;2610842;54;20455;-72
2023/03/04 19:17:35;;;;;;;10.90;9.20;;;6.30;17.30;;;;;;2609928;54;20441;-72
2023/03/04 19:23:23;;;;;;;11.23;9.40;;;6.20;16.10;;;;;;2609352;54;20426;-72
2023/03/04 19:29:11;;;;;;;12.10;11.10;;;6.20;15.00;;;;;;2611605;54;20442;-72
2023/03/04 19:34:59;;;;;;;14.20;12.80;;;6.20;15.60;;;;;;2613786;54;20134;-72
2023/03/04 19:40:47;;;;;;;18.47;13.30;;;6.20;14.00;;;;;;2609885;54;20134;-73
2023/03/04 19:46:34;;;;;;;43.20;31.07;;;6.20;8.70;;;;;;2612443;54;20693;-73
2023/03/04 19:52:22;;;;;;;16.87;15.37;;;6.20;8.10;;;;;;2613172;54;20115;-72
2023/03/04 19:58:10;;;;;;;14.03;13.00;;;6.30;9.00;;;;;;2610524;39;20538;-72
2023/03/04 20:10:45;;;;;;;10.20;9.27;;;6.10;9.30;;;;;;2607989;54;20395;-72
2023/03/04 20:16:34;;;;;;;13.63;10.60;;;6.10;10.60;;;;;;2610367;39;20687;-72
2023/03/04 20:22:22;;;;;;;9.63;8.43;;;6.00;12.00;;;;;;2609968;54;20503;-73
2023/03/04 20:28:09;;;;;;;10.07;9.30;;;6.00;16.80;;;;;;2608308;54;20134;-72
2023/03/04 20:33:58;;;;;;;63.37;42.30;;;5.90;22.30;;;;;;2608961;54;20134;-72
2023/03/04 20:39:46;;;;;;;31.40;18.00;;;5.90;25.40;;;;;;2608999;39;20903;-72
2023/03/04 20:45:35;;;;;;;17.60;16.00;;;5.80;24.00;;;;;;2610291;54;20443;-72
2023/03/04 20:51:22;;;;;;;20.20;16.20;;;5.80;21.80;;;;;;2610283;54;20520;-72
2023/03/04 20:57:10;;;;;;;12.07;10.60;;;5.70;22.90;;;;;;2609661;54;20392;-72
2023/03/04 21:02:58;;;;;;;15.03;11.63;;;5.70;23.10;;;;;;2613185;54;20146;-72
2023/03/04 21:08:46;;;;;;;13.50;12.13;;;5.60;25.40;;;;;;2608800;54;20123;-72
2023/03/04 21:14:34;;;;;;;11.30;10.20;;;5.60;26.70;;;;;;2611192;39;20543;-73
2023/03/04 21:20:22;;;;;;;13.43;11.57;;;5.50;28.60;;;;;;2611931;54;20419;-73
2023/03/04 21:26:10;;;;;;;22.13;11.00;;;5.50;28.60;;;;;;2610271;54;20146;-72
2023/03/04 21:32:03;;;;;;;11.10;10.00;;;5.40;30.80;;;;;;2610799;54;20653;-73
2023/03/04 21:37:51;;;;;;;20.13;16.37;;;5.40;29.70;;;;;;2610020;54;20390;-72
2023/03/04 21:43:39;;;;;;;25.77;23.23;;;5.40;30.20;;;;;;2609043;54;20793;-72
2023/03/04 21:49:27;;;;;;;13.43;10.30;;;5.30;33.30;;;;;;2612306;54;20226;-72
2023/03/04 21:55:14;;;;;;;11.47;9.30;;;5.30;34.70;;;;;;2611845;39;20757;-72
2023/03/04 22:01:17;;;;;;;11.93;10.90;;;5.30;34.90;;;;;;2608649;54;20190;-73
2023/03/04 22:07:05;;;;;;;10.70;9.80;;;5.30;32.50;;;;;;2613766;54;20395;-72
2023/03/04 22:12:52;;;;;;;13.73;12.40;;;5.20;33.00;;;;;;2613668;54;20147;-73
2023/03/04 22:18:41;;;;;;;13.87;11.27;;;5.20;35.40;;;;;;2613658;54;20226;-73
2023/03/04 22:24:29;;;;;;;19.00;10.20;;;5.20;33.90;;;;;;2613630;54;20379;-73
2023/03/04 22:30:17;;;;;;;11.13;9.97;;;5.10;35.60;;;;;;2612947;54;20144;-73
2023/03/04 22:36:05;;;;;;;10.93;9.93;;;5.10;35.80;;;;;;2614979;54;20407;-72
2023/03/04 22:41:52;;;;;;;16.83;10.00;;;5.00;37.00;;;;;;2615019;39;20853;-72
2023/03/04 22:54:14;;;;;;;9.90;9.00;;;5.10;43.50;;;;;;2613759;54;20419;-72
2023/03/04 23:00:06;;;;;;;14.10;10.87;;;5.10;47.50;;;;;;2613517;54;20538;-72
2023/03/04 23:10:28;;;;;;;10.17;8.27;;;5.10;57.90;;;;;;2612860;54;21049;-72
2023/03/04 23:16:16;;;;;;;10.33;8.20;;;5.00;63.50;;;;;;2613516;54;20387;-73
2023/03/04 23:22:03;;;;;;;13.27;8.47;;;5.00;70.00;;;;;;2613249;54;20562;-72
2023/03/04 23:27:50;;;;;;;19.37;11.20;;;4.90;76.70;;;;;;2612505;54;20205;-72
2023/03/04 23:33:38;;;;;;;9.13;8.00;;;4.90;78.50;;;;;;2613425;54;20122;-72
2023/03/04 23:39:25;;;;;;;10.83;8.43;;;4.90;84.20;;;;;;2612261;54;20509;-73
2023/03/04 23:45:12;;;;;;;8.80;8.00;;;4.90;90.50;;;;;;2613116;39;20537;-72
2023/03/04 23:51:00;;;;;;;13.93;9.93;;;4.80;95.30;;;;;;2613980;54;20134;-72
2023/03/04 23:56:48;;;;;;;17.00;8.17;;;4.80;99.90;;;;;;2614591;54;20130;-72
